sensor_id;sensor_type;location;lat;lon;timestamp;P1;durP1;ratioP1;P2;durP2;ratioP2
9128;SDS011;4599;50.906;6.786;2023-06-14T00:00:44;5.53;;;3.83;;
9128;SDS011;4599;50.906;6.786;2023-06-14T00:04:45;4.10;;;3.70;;
9128;SDS011;4599;50.906;6.786;2023-06-14T00:08:48;4.47;;;3.97;;
9128;SDS011;4599;50.906;6.786;2023-06-14T00:12:50;4.17;;;3.67;;
9128;SDS011;4599;50.906;6.786;2023-06-14T00:16:54;4.07;;;3.73;;
9128;SDS011;4599;50.906;6.786;2023-06-14T00:20:56;5.73;;;3.63;;
9128;SDS011;4599;50.906;6.786;2023-06-14T00:24:59;4.07;;;3.67;;
9128;SDS011;4599;50.906;6.786;2023-06-14T00:29:15;5.93;;;4.27;;
9128;SDS011;4599;50.906;6.786;2023-06-14T00:33:17;5.30;;;3.80;;
9128;SDS011;4599;50.906;6.786;2023-06-14T00:37:18;5.70;;;3.93;;
9128;SDS011;4599;50.906;6.786;2023-06-14T00:41:21;6.17;;;3.70;;
9128;SDS011;4599;50.906;6.786;2023-06-14T00:45:23;5.87;;;3.97;;
9128;SDS011;4599;50.906;6.786;2023-06-14T00:49:25;4.77;;;4.10;;
9128;SDS011;4599;50.906;6.786;2023-06-14T00:53:27;4.97;;;3.90;;
9128;SDS011;4599;50.906;6.786;2023-06-14T00:57:31;4.30;;;3.90;;
9128;SDS011;4599;50.906;6.786;2023-06-14T01:01:33;6.00;;;3.67;;
9128;SDS011;4599;50.906;6.786;2023-06-14T01:05:35;4.20;;;3.80;;
9128;SDS011;4599;50.906;6.786;2023-06-14T01:09:37;9.60;;;4.00;;
9128;SDS011;4599;50.906;6.786;2023-06-14T01:13:50;7.67;;;4.40;;
9128;SDS011;4599;50.906;6.786;2023-06-14T01:17:54;7.63;;;3.70;;
9128;SDS011;4599;50.906;6.786;2023-06-14T01:21:56;6.03;;;4.23;;
9128;SDS011;4599;50.906;6.786;2023-06-14T01:26:00;7.73;;;4.00;;
9128;SDS011;4599;50.906;6.786;2023-06-14T01:30:02;5.17;;;3.80;;
9128;SDS011;4599;50.906;6.786;2023-06-14T01:34:05;5.37;;;4.00;;
9128;SDS011;4599;50.906;6.786;2023-06-14T01:38:06;5.73;;;3.73;;
9128;SDS011;4599;50.906;6.786;2023-06-14T01:42:11;6.50;;;4.00;;
9128;SDS011;4599;50.906;6.786;2023-06-14T01:46:14;6.43;;;3.63;;
9128;SDS011;4599;50.906;6.786;2023-06-14T01:50:18;4.63;;;3.83;;
9128;SDS011;4599;50.906;6.786;2023-06-14T01:54:20;4.57;;;4.00;;
9128;SDS011;4599;50.906;6.786;2023-06-14T01:58:23;4.53;;;4.00;;
9128;SDS011;4599;50.906;6.786;2023-06-14T02:02:25;5.00;;;3.90;;
9128;SDS011;4599;50.906;6.786;2023-06-14T02:06:29;4.70;;;4.20;;
9128;SDS011;4599;50.906;6.786;2023-06-14T02:10:30;5.67;;;4.30;;
9128;SDS011;4599;50.906;6.786;2023-06-14T02:14:33;5.93;;;4.10;;
9128;SDS011;4599;50.906;6.786;2023-06-14T02:18:35;9.50;;;4.37;;
9128;SDS011;4599;50.906;6.786;2023-06-14T02:22:38;4.30;;;3.90;;
9128;SDS011;4599;50.906;6.786;2023-06-14T02:26:41;5.40;;;4.07;;
9128;SDS011;4599;50.906;6.786;2023-06-14T02:30:44;7.43;;;4.27;;
9128;SDS011;4599;50.906;6.786;2023-06-14T02:34:45;5.40;;;4.23;;
9128;SDS011;4599;50.906;6.786;2023-06-14T02:38:47;5.30;;;4.50;;
9128;SDS011;4599;50.906;6.786;2023-06-14T02:42:48;5.93;;;4.20;;
9128;SDS011;4599;50.906;6.786;2023-06-14T02:46:51;4.73;;;4.07;;
9128;SDS011;4599;50.906;6.786;2023-06-14T02:50:53;5.57;;;4.30;;
9128;SDS011;4599;50.906;6.786;2023-06-14T02:54:55;6.40;;;4.53;;
9128;SDS011;4599;50.906;6.786;2023-06-14T02:58:58;7.40;;;4.27;;
9128;SDS011;4599;50.906;6.786;2023-06-14T03:03:01;5.23;;;4.30;;
9128;SDS011;4599;50.906;6.786;2023-06-14T03:07:03;5.03;;;4.00;;
9128;SDS011;4599;50.906;6.786;2023-06-14T03:11:05;4.90;;;4.20;;
9128;SDS011;4599;50.906;6.786;2023-06-14T03:15:07;4.57;;;4.07;;
9128;SDS011;4599;50.906;6.786;2023-06-14T03:19:10;6.20;;;4.00;;
9128;SDS011;4599;50.906;6.786;2023-06-14T03:23:12;5.37;;;4.10;;
9128;SDS011;4599;50.906;6.786;2023-06-14T03:27:13;8.80;;;4.33;;
9128;SDS011;4599;50.906;6.786;2023-06-14T03:31:15;6.30;;;4.50;;
9128;SDS011;4599;50.906;6.786;2023-06-14T03:35:18;4.83;;;3.97;;
9128;SDS011;4599;50.906;6.786;2023-06-14T03:39:20;4.97;;;3.90;;
9128;SDS011;4599;50.906;6.786;2023-06-14T03:43:21;5.50;;;4.20;;
9128;SDS011;4599;50.906;6.786;2023-06-14T03:47:23;4.73;;;4.00;;
9128;SDS011;4599;50.906;6.786;2023-06-14T03:51:26;10.77;;;4.20;;
9128;SDS011;4599;50.906;6.786;2023-06-14T03:55:28;4.30;;;3.80;;
9128;SDS011;4599;50.906;6.786;2023-06-14T03:59:32;5.57;;;4.10;;
9128;SDS011;4599;50.906;6.786;2023-06-14T04:03:34;5.93;;;3.40;;
9128;SDS011;4599;50.906;6.786;2023-06-14T04:07:37;5.20;;;3.60;;
9128;SDS011;4599;50.906;6.786;2023-06-14T04:11:38;8.30;;;4.03;;
9128;SDS011;4599;50.906;6.786;2023-06-14T04:15:40;4.97;;;3.73;;
9128;SDS011;4599;50.906;6.786;2023-06-14T04:19:41;4.70;;;4.20;;
9128;SDS011;4599;50.906;6.786;2023-06-14T04:23:44;4.77;;;3.87;;
9128;SDS011;4599;50.906;6.786;2023-06-14T04:27:45;4.70;;;4.20;;
9128;SDS011;4599;50.906;6.786;2023-06-14T04:31:47;6.60;;;4.10;;
9128;SDS011;4599;50.906;6.786;2023-06-14T04:35:48;8.93;;;4.03;;
9128;SDS011;4599;50.906;6.786;2023-06-14T04:39:51;5.30;;;3.70;;
9128;SDS011;4599;50.906;6.786;2023-06-14T04:43:53;8.23;;;3.23;;
9128;SDS011;4599;50.906;6.786;2023-06-14T04:47:54;4.80;;;3.50;;
9128;SDS011;4599;50.906;6.786;2023-06-14T04:51:56;6.73;;;3.33;;
9128;SDS011;4599;50.906;6.786;2023-06-14T04:55:59;4.83;;;3.40;;
9128;SDS011;4599;50.906;6.786;2023-06-14T05:00:00;5.63;;;3.40;;
9128;SDS011;4599;50.906;6.786;2023-06-14T05:04:02;7.03;;;3.60;;
9128;SDS011;4599;50.906;6.786;2023-06-14T05:08:07;3.30;;;3.00;;
9128;SDS011;4599;50.906;6.786;2023-06-14T05:12:33;5.57;;;3.27;;
9128;SDS011;4599;50.906;6.786;2023-06-14T05:16:34;4.03;;;3.17;;
9128;SDS011;4599;50.906;6.786;2023-06-14T05:20:36;4.83;;;3.30;;
9128;SDS011;4599;50.906;6.786;2023-06-14T05:24:37;8.03;;;3.43;;
9128;SDS011;4599;50.906;6.786;2023-06-14T05:28:40;5.53;;;3.20;;
9128;SDS011;4599;50.906;6.786;2023-06-14T05:32:42;7.33;;;3.17;;
9128;SDS011;4599;50.906;6.786;2023-06-14T05:36:43;6.53;;;3.40;;
9128;SDS011;4599;50.906;6.786;2023-06-14T05:40:45;3.67;;;2.80;;
9128;SDS011;4599;50.906;6.786;2023-06-14T05:44:48;7.90;;;3.30;;
9128;SDS011;4599;50.906;6.786;2023-06-14T05:48:50;6.20;;;3.10;;
9128;SDS011;4599;50.906;6.786;2023-06-14T05:52:52;6.07;;;3.10;;
9128;SDS011;4599;50.906;6.786;2023-06-14T05:56:54;8.97;;;3.17;;
9128;SDS011;4599;50.906;6.786;2023-06-14T06:00:57;6.10;;;2.90;;
9128;SDS011;4599;50.906;6.786;2023-06-14T06:04:59;4.03;;;2.80;;
9128;SDS011;4599;50.906;6.786;2023-06-14T06:09:00;6.53;;;2.80;;
9128;SDS011;4599;50.906;6.786;2023-06-14T06:13:02;6.10;;;2.90;;
9128;SDS011;4599;50.906;6.786;2023-06-14T06:17:06;4.77;;;3.07;;
9128;SDS011;4599;50.906;6.786;2023-06-14T06:21:08;5.50;;;3.00;;
9128;SDS011;4599;50.906;6.786;2023-06-14T06:25:09;4.70;;;2.70;;
9128;SDS011;4599;50.906;6.786;2023-06-14T06:29:11;6.53;;;3.03;;
9128;SDS011;4599;50.906;6.786;2023-06-14T06:33:14;4.53;;;2.70;;
9128;SDS011;4599;50.906;6.786;2023-06-14T06:37:15;4.20;;;2.73;;
9128;SDS011;4599;50.906;6.786;2023-06-14T06:41:18;3.53;;;2.80;;
9128;SDS011;4599;50.906;6.786;2023-06-14T06:45:19;6.03;;;2.63;;
9128;SDS011;4599;50.906;6.786;2023-06-14T06:49:25;6.07;;;2.80;;
9128;SDS011;4599;50.906;6.786;2023-06-14T06:53:26;4.47;;;2.30;;
9128;SDS011;4599;50.906;6.786;2023-06-14T06:57:43;4.13;;;2.40;;
9128;SDS011;4599;50.906;6.786;2023-06-14T07:01:44;4.80;;;2.50;;
9128;SDS011;4599;50.906;6.786;2023-06-14T07:05:50;2.60;;;2.23;;
9128;SDS011;4599;50.906;6.786;2023-06-14T07:09:51;3.60;;;2.60;;
9128;SDS011;4599;50.906;6.786;2023-06-14T07:13:53;11.93;;;2.87;;
9128;SDS011;4599;50.906;6.786;2023-06-14T07:17:54;4.37;;;2.60;;
9128;SDS011;4599;50.906;6.786;2023-06-14T07:21:57;2.73;;;2.50;;
9128;SDS011;4599;50.906;6.786;2023-06-14T07:25:59;3.93;;;2.20;;
9128;SDS011;4599;50.906;6.786;2023-06-14T07:30:01;4.97;;;2.60;;
9128;SDS011;4599;50.906;6.786;2023-06-14T07:34:02;10.90;;;2.60;;
9128;SDS011;4599;50.906;6.786;2023-06-14T07:38:05;3.80;;;2.40;;
9128;SDS011;4599;50.906;6.786;2023-06-14T07:42:07;3.30;;;2.27;;
9128;SDS011;4599;50.906;6.786;2023-06-14T07:46:09;6.63;;;2.33;;
9128;SDS011;4599;50.906;6.786;2023-06-14T07:50:11;6.60;;;2.53;;
9128;SDS011;4599;50.906;6.786;2023-06-14T07:54:13;6.03;;;2.47;;
9128;SDS011;4599;50.906;6.786;2023-06-14T07:58:15;3.30;;;2.23;;
9128;SDS011;4599;50.906;6.786;2023-06-14T08:02:16;5.63;;;2.57;;
9128;SDS011;4599;50.906;6.786;2023-06-14T08:06:18;4.67;;;2.20;;
9128;SDS011;4599;50.906;6.786;2023-06-14T08:10:21;5.30;;;2.20;;
9128;SDS011;4599;50.906;6.786;2023-06-14T08:14:23;3.50;;;2.10;;
9128;SDS011;4599;50.906;6.786;2023-06-14T08:18:25;6.23;;;2.30;;
9128;SDS011;4599;50.906;6.786;2023-06-14T08:22:26;5.63;;;2.10;;
9128;SDS011;4599;50.906;6.786;2023-06-14T08:26:29;4.53;;;2.20;;
9128;SDS011;4599;50.906;6.786;2023-06-14T08:30:31;3.30;;;2.10;;
9128;SDS011;4599;50.906;6.786;2023-06-14T08:34:33;4.70;;;1.80;;
9128;SDS011;4599;50.906;6.786;2023-06-14T08:38:36;2.83;;;2.10;;
9128;SDS011;4599;50.906;6.786;2023-06-14T08:42:39;7.37;;;2.20;;
9128;SDS011;4599;50.906;6.786;2023-06-14T08:46:42;2.77;;;1.90;;
9128;SDS011;4599;50.906;6.786;2023-06-14T08:50:44;2.67;;;1.93;;
9128;SDS011;4599;50.906;6.786;2023-06-14T08:54:48;1.97;;;1.77;;
9128;SDS011;4599;50.906;6.786;2023-06-14T08:58:51;2.63;;;1.67;;
9128;SDS011;4599;50.906;6.786;2023-06-14T09:02:53;1.93;;;1.30;;
9128;SDS011;4599;50.906;6.786;2023-06-14T09:06:55;4.17;;;1.60;;
9128;SDS011;4599;50.906;6.786;2023-06-14T09:10:57;2.00;;;1.50;;
9128;SDS011;4599;50.906;6.786;2023-06-14T09:15:00;3.27;;;1.70;;
9128;SDS011;4599;50.906;6.786;2023-06-14T09:19:02;3.03;;;1.57;;
9128;SDS011;4599;50.906;6.786;2023-06-14T09:23:04;3.17;;;1.73;;
9128;SDS011;4599;50.906;6.786;2023-06-14T09:27:05;4.87;;;1.80;;
9128;SDS011;4599;50.906;6.786;2023-06-14T09:31:09;5.63;;;1.70;;
9128;SDS011;4599;50.906;6.786;2023-06-14T09:35:11;2.65;;;1.92;;
9128;SDS011;4599;50.906;6.786;2023-06-14T09:39:16;3.53;;;1.60;;
9128;SDS011;4599;50.906;6.786;2023-06-14T09:43:18;1.95;;;1.75;;
9128;SDS011;4599;50.906;6.786;2023-06-14T09:47:24;2.08;;;1.88;;
9128;SDS011;4599;50.906;6.786;2023-06-14T09:51:26;4.20;;;1.80;;
9128;SDS011;4599;50.906;6.786;2023-06-14T09:55:29;3.17;;;1.73;;
9128;SDS011;4599;50.906;6.786;2023-06-14T09:59:32;2.58;;;1.77;;
9128;SDS011;4599;50.906;6.786;2023-06-14T10:03:35;4.57;;;1.73;;
9128;SDS011;4599;50.906;6.786;2023-06-14T10:07:59;1.83;;;1.73;;
9128;SDS011;4599;50.906;6.786;2023-06-14T10:12:08;3.55;;;1.92;;
9128;SDS011;4599;50.906;6.786;2023-06-14T10:16:12;2.83;;;1.95;;
9128;SDS011;4599;50.906;6.786;2023-06-14T10:20:21;3.83;;;1.98;;
9128;SDS011;4599;50.906;6.786;2023-06-14T10:24:32;2.40;;;1.90;;
9128;SDS011;4599;50.906;6.786;2023-06-14T10:28:37;2.80;;;1.77;;
9128;SDS011;4599;50.906;6.786;2023-06-14T10:37:07;3.55;;;1.73;;
9128;SDS011;4599;50.906;6.786;2023-06-14T10:41:12;5.82;;;1.90;;
9128;SDS011;4599;50.906;6.786;2023-06-14T10:45:14;2.25;;;1.90;;
9128;SDS011;4599;50.906;6.786;2023-06-14T10:49:16;4.07;;;2.00;;
9128;SDS011;4599;50.906;6.786;2023-06-14T10:53:25;2.85;;;1.70;;
9128;SDS011;4599;50.906;6.786;2023-06-14T10:57:26;3.75;;;2.08;;
9128;SDS011;4599;50.906;6.786;2023-06-14T11:01:32;2.53;;;1.88;;
9128;SDS011;4599;50.906;6.786;2023-06-14T11:05:42;2.38;;;1.98;;
9128;SDS011;4599;50.906;6.786;2023-06-14T11:09:54;3.70;;;1.60;;
9128;SDS011;4599;50.906;6.786;2023-06-14T11:14:06;4.78;;;1.77;;
9128;SDS011;4599;50.906;6.786;2023-06-14T11:18:08;3.83;;;2.00;;
9128;SDS011;4599;50.906;6.786;2023-06-14T11:22:09;2.38;;;1.73;;
9128;SDS011;4599;50.906;6.786;2023-06-14T11:26:12;2.88;;;1.85;;
9128;SDS011;4599;50.906;6.786;2023-06-14T11:30:14;5.80;;;2.10;;
9128;SDS011;4599;50.906;6.786;2023-06-14T11:34:16;4.80;;;2.47;;
9128;SDS011;4599;50.906;6.786;2023-06-14T11:38:19;3.22;;;2.00;;
9128;SDS011;4599;50.906;6.786;2023-06-14T11:42:21;2.50;;;2.00;;
9128;SDS011;4599;50.906;6.786;2023-06-14T11:46:24;2.00;;;1.80;;
9128;SDS011;4599;50.906;6.786;2023-06-14T11:50:27;1.70;;;1.60;;
9128;SDS011;4599;50.906;6.786;2023-06-14T11:54:29;6.13;;;2.13;;
9128;SDS011;4599;50.906;6.786;2023-06-14T11:58:32;4.72;;;1.73;;
9128;SDS011;4599;50.906;6.786;2023-06-14T12:02:34;3.63;;;1.95;;
9128;SDS011;4599;50.906;6.786;2023-06-14T12:06:35;6.07;;;2.05;;
9128;SDS011;4599;50.906;6.786;2023-06-14T12:10:41;2.72;;;1.98;;
9128;SDS011;4599;50.906;6.786;2023-06-14T12:14:44;2.53;;;2.10;;
9128;SDS011;4599;50.906;6.786;2023-06-14T12:18:45;2.42;;;1.90;;
9128;SDS011;4599;50.906;6.786;2023-06-14T12:22:50;4.20;;;1.98;;
9128;SDS011;4599;50.906;6.786;2023-06-14T12:26:52;2.33;;;1.92;;
9128;SDS011;4599;50.906;6.786;2023-06-14T12:30:55;3.60;;;2.05;;
9128;SDS011;4599;50.906;6.786;2023-06-14T12:34:57;3.20;;;1.90;;
9128;SDS011;4599;50.906;6.786;2023-06-14T12:38:58;4.30;;;2.35;;
9128;SDS011;4599;50.906;6.786;2023-06-14T12:43:00;2.20;;;2.00;;
9128;SDS011;4599;50.906;6.786;2023-06-14T12:47:03;2.22;;;2.03;;
9128;SDS011;4599;50.906;6.786;2023-06-14T12:51:05;2.72;;;2.00;;
9128;SDS011;4599;50.906;6.786;2023-06-14T12:55:06;3.65;;;2.10;;
9128;SDS011;4599;50.906;6.786;2023-06-14T12:59:08;4.13;;;1.90;;
9128;SDS011;4599;50.906;6.786;2023-06-14T13:03:11;5.88;;;3.25;;
9128;SDS011;4599;50.906;6.786;2023-06-14T13:07:13;1.85;;;1.75;;
9128;SDS011;4599;50.906;6.786;2023-06-14T13:11:14;2.17;;;1.98;;
9128;SDS011;4599;50.906;6.786;2023-06-14T13:15:16;3.17;;;2.08;;
9128;SDS011;4599;50.906;6.786;2023-06-14T13:19:19;4.57;;;1.90;;
9128;SDS011;4599;50.906;6.786;2023-06-14T13:23:20;2.00;;;1.60;;
9128;SDS011;4599;50.906;6.786;2023-06-14T13:27:25;1.88;;;1.52;;
9128;SDS011;4599;50.906;6.786;2023-06-14T13:31:27;1.98;;;1.80;;
9128;SDS011;4599;50.906;6.786;2023-06-14T13:35:29;2.63;;;1.60;;
9128;SDS011;4599;50.906;6.786;2023-06-14T13:39:31;7.03;;;1.90;;
9128;SDS011;4599;50.906;6.786;2023-06-14T13:43:33;1.60;;;1.50;;
9128;SDS011;4599;50.906;6.786;2023-06-14T13:47:34;1.80;;;1.50;;
9128;SDS011;4599;50.906;6.786;2023-06-14T13:51:37;2.20;;;1.50;;
9128;SDS011;4599;50.906;6.786;2023-06-14T13:55:39;1.63;;;1.52;;
9128;SDS011;4599;50.906;6.786;2023-06-14T13:59:41;1.92;;;1.60;;
9128;SDS011;4599;50.906;6.786;2023-06-14T14:03:44;2.55;;;1.52;;
9128;SDS011;4599;50.906;6.786;2023-06-14T14:07:47;2.50;;;1.55;;
9128;SDS011;4599;50.906;6.786;2023-06-14T14:11:48;1.67;;;1.58;;
9128;SDS011;4599;50.906;6.786;2023-06-14T14:15:50;3.35;;;1.50;;
9128;SDS011;4599;50.906;6.786;2023-06-14T14:19:52;2.22;;;1.85;;
9128;SDS011;4599;50.906;6.786;2023-06-14T14:23:55;3.47;;;1.60;;
9128;SDS011;4599;50.906;6.786;2023-06-14T14:27:56;4.20;;;1.70;;
9128;SDS011;4599;50.906;6.786;2023-06-14T14:31:58;2.17;;;1.60;;
9128;SDS011;4599;50.906;6.786;2023-06-14T14:36:00;8.68;;;1.73;;
9128;SDS011;4599;50.906;6.786;2023-06-14T14:40:03;2.85;;;1.60;;
9128;SDS011;4599;50.906;6.786;2023-06-14T14:44:06;3.50;;;1.60;;
9128;SDS011;4599;50.906;6.786;2023-06-14T14:48:09;2.58;;;1.63;;
9128;SDS011;4599;50.906;6.786;2023-06-14T14:52:11;4.53;;;1.50;;
9128;SDS011;4599;50.906;6.786;2023-06-14T14:56:26;3.55;;;1.85;;
9128;SDS011;4599;50.906;6.786;2023-06-14T15:00:27;2.22;;;1.80;;
9128;SDS011;4599;50.906;6.786;2023-06-14T15:04:29;2.47;;;1.85;;
9128;SDS011;4599;50.906;6.786;2023-06-14T15:08:30;3.17;;;1.70;;
9128;SDS011;4599;50.906;6.786;2023-06-14T15:12:34;2.25;;;1.58;;
9128;SDS011;4599;50.906;6.786;2023-06-14T15:16:36;1.95;;;1.70;;
9128;SDS011;4599;50.906;6.786;2023-06-14T15:20:38;2.90;;;1.40;;
9128;SDS011;4599;50.906;6.786;2023-06-14T15:24:39;6.93;;;1.90;;
9128;SDS011;4599;50.906;6.786;2023-06-14T15:28:46;2.80;;;1.73;;
9128;SDS011;4599;50.906;6.786;2023-06-14T15:32:47;3.30;;;1.90;;
9128;SDS011;4599;50.906;6.786;2023-06-14T15:36:49;4.53;;;1.80;;
9128;SDS011;4599;50.906;6.786;2023-06-14T15:40:50;5.67;;;1.50;;
9128;SDS011;4599;50.906;6.786;2023-06-14T15:44:54;4.00;;;1.60;;
9128;SDS011;4599;50.906;6.786;2023-06-14T15:48:55;4.17;;;1.90;;
9128;SDS011;4599;50.906;6.786;2023-06-14T15:52:58;1.90;;;1.40;;
9128;SDS011;4599;50.906;6.786;2023-06-14T15:57:00;3.37;;;1.60;;
9128;SDS011;4599;50.906;6.786;2023-06-14T16:01:02;4.30;;;1.83;;
9128;SDS011;4599;50.906;6.786;2023-06-14T16:05:04;2.17;;;1.70;;
9128;SDS011;4599;50.906;6.786;2023-06-14T16:09:06;4.13;;;1.70;;
9128;SDS011;4599;50.906;6.786;2023-06-14T16:13:07;2.80;;;1.63;;
9128;SDS011;4599;50.906;6.786;2023-06-14T16:17:11;3.87;;;1.80;;
9128;SDS011;4599;50.906;6.786;2023-06-14T16:21:13;2.37;;;1.93;;
9128;SDS011;4599;50.906;6.786;2023-06-14T16:25:15;3.63;;;1.80;;
9128;SDS011;4599;50.906;6.786;2023-06-14T16:29:18;2.00;;;1.80;;
9128;SDS011;4599;50.906;6.786;2023-06-14T16:33:20;3.00;;;2.70;;
9128;SDS011;4599;50.906;6.786;2023-06-14T16:37:22;1.87;;;1.50;;
9128;SDS011;4599;50.906;6.786;2023-06-14T16:41:23;2.90;;;1.60;;
9128;SDS011;4599;50.906;6.786;2023-06-14T16:45:25;3.17;;;1.57;;
9128;SDS011;4599;50.906;6.786;2023-06-14T16:49:29;2.35;;;1.70;;
9128;SDS011;4599;50.906;6.786;2023-06-14T16:53:31;2.13;;;1.57;;
9128;SDS011;4599;50.906;6.786;2023-06-14T16:57:33;2.00;;;1.70;;
9128;SDS011;4599;50.906;6.786;2023-06-14T17:01:34;2.27;;;1.87;;
9128;SDS011;4599;50.906;6.786;2023-06-14T17:05:38;2.30;;;1.70;;
9128;SDS011;4599;50.906;6.786;2023-06-14T17:09:53;1.70;;;1.60;;
9128;SDS011;4599;50.906;6.786;2023-06-14T17:13:55;3.27;;;1.90;;
9128;SDS011;4599;50.906;6.786;2023-06-14T17:17:57;2.10;;;1.60;;
9128;SDS011;4599;50.906;6.786;2023-06-14T17:22:00;2.50;;;1.80;;
9128;SDS011;4599;50.906;6.786;2023-06-14T17:26:01;3.07;;;1.67;;
9128;SDS011;4599;50.906;6.786;2023-06-14T17:30:03;1.97;;;1.83;;
9128;SDS011;4599;50.906;6.786;2023-06-14T17:34:05;2.77;;;1.60;;
9128;SDS011;4599;50.906;6.786;2023-06-14T17:38:08;2.23;;;1.80;;
9128;SDS011;4599;50.906;6.786;2023-06-14T17:42:10;1.73;;;1.53;;
9128;SDS011;4599;50.906;6.786;2023-06-14T17:46:12;5.30;;;1.93;;
9128;SDS011;4599;50.906;6.786;2023-06-14T17:50:14;6.63;;;1.90;;
9128;SDS011;4599;50.906;6.786;2023-06-14T17:54:18;1.70;;;1.60;;
9128;SDS011;4599;50.906;6.786;2023-06-14T17:58:19;3.30;;;1.90;;
9128;SDS011;4599;50.906;6.786;2023-06-14T18:02:21;3.13;;;2.17;;
9128;SDS011;4599;50.906;6.786;2023-06-14T18:06:22;2.70;;;2.00;;
9128;SDS011;4599;50.906;6.786;2023-06-14T18:10:25;2.97;;;1.77;;
9128;SDS011;4599;50.906;6.786;2023-06-14T18:14:27;3.20;;;1.90;;
9128;SDS011;4599;50.906;6.786;2023-06-14T18:18:29;4.13;;;2.10;;
9128;SDS011;4599;50.906;6.786;2023-06-14T18:22:30;2.97;;;1.90;;
9128;SDS011;4599;50.906;6.786;2023-06-14T18:26:33;3.13;;;1.90;;
9128;SDS011;4599;50.906;6.786;2023-06-14T18:30:36;3.70;;;1.97;;
9128;SDS011;4599;50.906;6.786;2023-06-14T18:34:38;1.97;;;1.80;;
9128;SDS011;4599;50.906;6.786;2023-06-14T18:38:39;4.43;;;2.00;;
9128;SDS011;4599;50.906;6.786;2023-06-14T18:42:42;2.57;;;2.10;;
9128;SDS011;4599;50.906;6.786;2023-06-14T18:46:45;2.30;;;1.97;;
9128;SDS011;4599;50.906;6.786;2023-06-14T18:50:47;2.53;;;1.87;;
9128;SDS011;4599;50.906;6.786;2023-06-14T18:54:48;3.83;;;2.27;;
9128;SDS011;4599;50.906;6.786;2023-06-14T18:58:51;2.33;;;1.93;;
9128;SDS011;4599;50.906;6.786;2023-06-14T19:02:53;3.00;;;1.90;;
9128;SDS011;4599;50.906;6.786;2023-06-14T19:06:54;2.20;;;2.00;;
9128;SDS011;4599;50.906;6.786;2023-06-14T19:10:56;2.13;;;1.83;;
9128;SDS011;4599;50.906;6.786;2023-06-14T19:14:59;2.23;;;2.03;;
9128;SDS011;4599;50.906;6.786;2023-06-14T19:19:05;1.87;;;1.73;;
9128;SDS011;4599;50.906;6.786;2023-06-14T19:23:06;5.17;;;1.70;;
9128;SDS011;4599;50.906;6.786;2023-06-14T19:27:08;1.93;;;1.73;;
9128;SDS011;4599;50.906;6.786;2023-06-14T19:31:11;2.40;;;2.20;;
9128;SDS011;4599;50.906;6.786;2023-06-14T19:35:12;4.90;;;2.10;;
9128;SDS011;4599;50.906;6.786;2023-06-14T19:39:14;6.97;;;2.30;;
9128;SDS011;4599;50.906;6.786;2023-06-14T19:43:16;3.20;;;2.00;;
9128;SDS011;4599;50.906;6.786;2023-06-14T19:47:19;4.40;;;2.10;;
9128;SDS011;4599;50.906;6.786;2023-06-14T19:51:20;2.17;;;1.97;;
9128;SDS011;4599;50.906;6.786;2023-06-14T19:55:22;3.30;;;1.97;;
9128;SDS011;4599;50.906;6.786;2023-06-14T19:59:26;2.17;;;1.97;;
9128;SDS011;4599;50.906;6.786;2023-06-14T20:03:29;3.63;;;1.90;;
9128;SDS011;4599;50.906;6.786;2023-06-14T20:07:31;2.70;;;2.30;;
9128;SDS011;4599;50.906;6.786;2023-06-14T20:11:32;5.67;;;3.30;;
9128;SDS011;4599;50.906;6.786;2023-06-14T20:15:34;2.90;;;2.57;;
9128;SDS011;4599;50.906;6.786;2023-06-14T20:19:37;7.07;;;2.97;;
9128;SDS011;4599;50.906;6.786;2023-06-14T20:23:38;2.50;;;2.30;;
9128;SDS011;4599;50.906;6.786;2023-06-14T20:27:40;5.40;;;2.37;;
9128;SDS011;4599;50.906;6.786;2023-06-14T20:31:41;4.50;;;2.50;;
9128;SDS011;4599;50.906;6.786;2023-06-14T20:35:45;4.47;;;2.57;;
9128;SDS011;4599;50.906;6.786;2023-06-14T20:39:47;3.87;;;2.30;;
9128;SDS011;4599;50.906;6.786;2023-06-14T20:43:49;3.40;;;2.50;;
9128;SDS011;4599;50.906;6.786;2023-06-14T20:47:51;3.77;;;2.37;;
9128;SDS011;4599;50.906;6.786;2023-06-14T20:51:54;4.00;;;2.30;;
9128;SDS011;4599;50.906;6.786;2023-06-14T20:55:58;3.93;;;2.30;;
9128;SDS011;4599;50.906;6.786;2023-06-14T20:59:59;4.37;;;2.70;;
9128;SDS011;4599;50.906;6.786;2023-06-14T21:04:01;5.13;;;2.70;;
9128;SDS011;4599;50.906;6.786;2023-06-14T21:08:04;3.07;;;2.57;;
9128;SDS011;4599;50.906;6.786;2023-06-14T21:12:06;4.70;;;2.40;;
9128;SDS011;4599;50.906;6.786;2023-06-14T21:16:09;4.00;;;2.37;;
9128;SDS011;4599;50.906;6.786;2023-06-14T21:20:11;2.30;;;2.10;;
9128;SDS011;4599;50.906;6.786;2023-06-14T21:24:14;2.47;;;2.27;;
9128;SDS011;4599;50.906;6.786;2023-06-14T21:28:16;2.93;;;2.30;;
9128;SDS011;4599;50.906;6.786;2023-06-14T21:32:17;2.37;;;1.97;;
9128;SDS011;4599;50.906;6.786;2023-06-14T21:36:19;2.50;;;2.00;;
9128;SDS011;4599;50.906;6.786;2023-06-14T21:40:23;2.57;;;2.03;;
9128;SDS011;4599;50.906;6.786;2023-06-14T21:44:25;2.57;;;1.90;;
9128;SDS011;4599;50.906;6.786;2023-06-14T21:48:26;2.40;;;2.20;;
9128;SDS011;4599;50.906;6.786;2023-06-14T21:52:28;2.97;;;1.90;;
9128;SDS011;4599;50.906;6.786;2023-06-14T21:56:31;2.40;;;2.20;;
9128;SDS011;4599;50.906;6.786;2023-06-14T22:00:33;17.43;;;2.50;;
9128;SDS011;4599;50.906;6.786;2023-06-14T22:04:34;3.43;;;2.20;;
9128;SDS011;4599;50.906;6.786;2023-06-14T22:08:37;2.37;;;2.10;;
9128;SDS011;4599;50.906;6.786;2023-06-14T22:12:40;2.60;;;2.40;;
9128;SDS011;4599;50.906;6.786;2023-06-14T22:16:42;3.43;;;2.50;;
9128;SDS011;4599;50.906;6.786;2023-06-14T22:20:43;3.83;;;2.93;;
9128;SDS011;4599;50.906;6.786;2023-06-14T22:24:45;4.50;;;2.90;;
9128;SDS011;4599;50.906;6.786;2023-06-14T22:28:48;3.20;;;2.50;;
9128;SDS011;4599;50.906;6.786;2023-06-14T22:32:50;3.20;;;2.83;;
9128;SDS011;4599;50.906;6.786;2023-06-14T22:36:52;3.10;;;2.30;;
9128;SDS011;4599;50.906;6.786;2023-06-14T22:40:53;2.77;;;2.57;;
9128;SDS011;4599;50.906;6.786;2023-06-14T22:44:56;4.13;;;2.33;;
9128;SDS011;4599;50.906;6.786;2023-06-14T22:48:58;2.20;;;2.00;;
9128;SDS011;4599;50.906;6.786;2023-06-14T22:53:00;2.60;;;2.30;;
9128;SDS011;4599;50.906;6.786;2023-06-14T22:57:01;3.37;;;2.10;;
9128;SDS011;4599;50.906;6.786;2023-06-14T23:01:04;2.73;;;2.33;;
9128;SDS011;4599;50.906;6.786;2023-06-14T23:05:06;2.10;;;1.90;;
9128;SDS011;4599;50.906;6.786;2023-06-14T23:09:08;3.03;;;2.17;;
9128;SDS011;4599;50.906;6.786;2023-06-14T23:13:10;2.80;;;2.23;;
9128;SDS011;4599;50.906;6.786;2023-06-14T23:17:13;2.50;;;2.20;;
9128;SDS011;4599;50.906;6.786;2023-06-14T23:21:15;2.67;;;2.00;;
9128;SDS011;4599;50.906;6.786;2023-06-14T23:25:18;4.27;;;2.00;;
9128;SDS011;4599;50.906;6.786;2023-06-14T23:29:19;5.37;;;2.20;;
9128;SDS011;4599;50.906;6.786;2023-06-14T23:33:22;2.67;;;2.00;;
9128;SDS011;4599;50.906;6.786;2023-06-14T23:37:24;5.80;;;2.10;;
9128;SDS011;4599;50.906;6.786;2023-06-14T23:41:28;3.23;;;2.03;;
9128;SDS011;4599;50.906;6.786;2023-06-14T23:45:29;5.20;;;1.90;;
9128;SDS011;4599;50.906;6.786;2023-06-14T23:49:32;2.00;;;1.80;;
9128;SDS011;4599;50.906;6.786;2023-06-14T23:53:35;2.07;;;1.97;;
9128;SDS011;4599;50.906;6.786;2023-06-14T23:57:36;5.17;;;1.90;;
